Time;durP1;ratioP1;P1;durP2;ratioP2;P2;SDS_P1;SDS_P2;PMS_P1;PMS_P2;Temp;Humidity;BMP_temperature;BMP_pressure;BME280_temperature;BME280_humidity;BME280_pressure;Samples;Min_cycle;Max_cycle;Signal;HPM_P1;HPM_P2
2023/08/05 00:01:00;;;;;;;12.18;7.22;;;;;;;19.87;74.07;99295.44;4938505;28;20046;-69
2023/08/05 00:03:29;;;;;;;15.18;7.78;;;;;;;19.91;73.83;99299.50;4938411;28;20049;-68
2023/08/05 00:05:57;;;;;;;17.50;8.70;;;;;;;19.91;73.88;99296.78;4936708;28;20054;-68
2023/08/05 00:08:24;;;;;;;13.80;8.23;;;;;;;19.90;73.81;99300.50;4938410;28;20042;-68
2023/08/05 00:10:51;;;;;;;13.43;7.70;;;;;;;19.88;73.68;99297.13;4936869;28;20493;-67
2023/08/05 00:13:18;;;;;;;12.02;8.05;;;;;;;19.86;73.66;99285.66;4936917;28;20051;-69
2023/08/05 00:15:47;;;;;;;14.02;8.40;;;;;;;19.85;73.53;99300.22;4936743;28;20077;-69
2023/08/05 00:18:12;;;;;;;18.42;8.65;;;;;;;19.81;73.59;99293.47;4935032;28;20050;-68
2023/08/05 00:20:39;;;;;;;14.50;7.85;;;;;;;19.80;73.58;99296.34;4936794;28;20047;-67
2023/08/05 00:23:10;;;;;;;12.93;7.93;;;;;;;19.77;73.85;99300.25;4935383;28;20074;-65
2023/08/05 00:25:36;;;;;;;13.85;8.70;;;;;;;19.76;73.60;99308.53;4936624;28;20409;-66
2023/08/05 00:28:04;;;;;;;14.73;8.52;;;;;;;19.71;73.72;99300.97;4936445;28;20046;-66
2023/08/05 00:30:29;;;;;;;15.43;8.15;;;;;;;19.71;74.25;99302.81;4936718;28;20128;-66
2023/08/05 00:35:47;;;;;;;15.52;8.30;;;;;;;19.66;74.25;99308.75;4935086;28;20051;-66
2023/08/05 00:38:12;;;;;;;18.92;8.52;;;;;;;19.64;74.92;99299.97;4936539;28;20039;-68
2023/08/05 00:40:41;;;;;;;15.52;8.43;;;;;;;19.61;74.54;99305.75;4936215;28;21283;-66
2023/08/05 00:43:10;;;;;;;21.20;8.93;;;;;;;19.61;75.11;99313.84;4942134;28;20054;-67
2023/08/05 00:45:36;;;;;;;19.33;8.88;;;;;;;19.58;74.85;99312.34;4934959;28;20508;-67
2023/08/05 00:48:27;;;;;;;14.82;9.32;;;;;;;19.62;75.66;99312.84;4936094;28;20054;-67
2023/08/05 00:50:54;;;;;;;14.15;8.40;;;;;;;19.52;75.08;99317.63;4932885;28;20034;-68
2023/08/05 00:53:23;;;;;;;18.20;9.18;;;;;;;19.49;74.70;99313.38;4933250;28;20818;-68
2023/08/05 00:55:51;;;;;;;14.93;8.90;;;;;;;19.49;75.05;99318.78;4946870;28;20533;-67
2023/08/05 00:58:21;;;;;;;22.85;9.00;;;;;;;19.49;75.23;99317.94;4932096;28;20042;-68
2023/08/05 01:00:48;;;;;;;21.77;9.65;;;;;;;19.46;76.01;99321.81;4935431;28;20043;-68
2023/08/05 01:03:15;;;;;;;15.25;8.93;;;;;;;19.44;75.30;99310.31;4934182;28;20064;-68
2023/08/05 01:05:41;;;;;;;16.00;9.15;;;;;;;19.41;75.68;99309.84;4925077;28;20035;-68
2023/08/05 01:08:34;;;;;;;16.48;7.97;;;;;;;19.46;76.03;99318.25;4924821;28;20477;-69
2023/08/05 01:11:01;;;;;;;13.73;8.32;;;;;;;19.36;75.59;99317.63;4931108;28;20039;-68
2023/08/05 01:13:29;;;;;;;10.88;8.02;;;;;;;19.32;75.53;99344.16;4923942;28;20051;-69
2023/08/05 01:15:58;;;;;;;14.90;8.43;;;;;;;19.32;76.07;99313.56;4924692;28;20046;-68
2023/08/05 01:18:25;;;;;;;13.68;8.48;;;;;;;19.28;77.09;99336.56;4924378;28;20062;-68
2023/08/05 01:24:17;;;;;;;14.60;8.43;;;;;;;19.29;77.24;99322.88;4948363;28;20063;-68
2023/08/05 01:26:44;;;;;;;14.85;7.80;;;;;;;19.22;76.94;99328.13;4925667;28;20509;-69
2023/08/05 01:29:12;;;;;;;13.40;7.78;;;;;;;19.19;77.01;99323.06;4924417;28;20051;-68
2023/08/05 01:31:43;;;;;;;16.55;8.93;;;;;;;19.16;76.91;99355.84;4932741;28;20039;-69
2023/08/05 01:34:09;;;;;;;14.52;8.50;;;;;;;19.13;76.64;99331.88;4937343;28;20050;-68
2023/08/05 01:36:38;;;;;;;13.25;8.85;;;;;;;19.12;77.38;99327.47;4917379;28;20042;-69
2023/08/05 01:39:10;;;;;;;13.77;9.10;;;;;;;19.10;77.67;99326.78;4943110;28;20054;-68
2023/08/05 01:41:36;;;;;;;13.13;8.93;;;;;;;19.09;77.45;99333.22;4933246;28;20050;-68
2023/08/05 01:44:03;;;;;;;16.73;9.35;;;;;;;19.09;77.54;99321.56;4932451;28;20046;-67
2023/08/05 01:46:30;;;;;;;12.23;8.02;;;;;;;19.09;77.26;99332.38;4914743;28;20054;-68
2023/08/05 01:48:56;;;;;;;17.13;8.20;;;;;;;19.09;77.30;99359.38;4933292;28;20502;-68
2023/08/05 01:51:23;;;;;;;20.27;9.07;;;;;;;19.10;77.37;99342.16;4928276;28;20130;-69
2023/08/05 01:54:13;;;;;;;17.38;8.50;;;;;;;19.11;77.42;99346.56;4931084;28;20050;-69
2023/08/05 01:56:40;;;;;;;19.60;8.38;;;;;;;19.12;77.04;99349.09;4933076;28;20117;-68
2023/08/05 01:59:30;;;;;;;17.33;8.52;;;;;;;19.13;76.87;99341.81;4929562;28;20039;-74
2023/08/05 02:01:57;;;;;;;12.45;8.50;;;;;;;19.15;77.34;99342.50;4934632;28;20055;-72
2023/08/05 02:04:22;;;;;;;19.02;8.73;;;;;;;19.16;76.88;99345.03;4933424;28;20043;-74
2023/08/05 02:06:49;;;;;;;21.00;9.85;;;;;;;19.20;76.86;99346.38;4931299;28;20054;-72
2023/08/05 02:12:05;;;;;;;16.17;8.90;;;;;;;19.25;76.14;99359.38;4917211;28;20054;-72
2023/08/05 02:14:36;;;;;;;17.55;10.20;;;;;;;19.30;75.88;99361.56;4934216;28;20049;-73
2023/08/05 02:17:03;;;;;;;13.98;8.68;;;;;;;19.29;75.55;99366.13;4934568;28;20062;-72
2023/08/05 02:19:29;;;;;;;18.95;9.35;;;;;;;19.33;76.00;99369.31;4916423;28;20063;-71
2023/08/05 02:22:04;;;;;;;14.57;9.13;;;;;;;19.38;75.55;99353.44;4919205;28;20046;-72
2023/08/05 02:24:31;;;;;;;19.58;9.75;;;;;;;19.42;75.96;99349.34;4934863;28;20066;-70
2023/08/05 02:26:56;;;;;;;16.92;9.05;;;;;;;19.48;75.86;99363.06;4934823;28;20047;-71
2023/08/05 02:29:23;;;;;;;13.77;8.68;;;;;;;19.54;75.57;99367.78;4935079;28;20046;-68
2023/08/05 02:31:52;;;;;;;14.93;8.80;;;;;;;19.58;75.17;99371.81;4934533;28;20046;-71
2023/08/05 02:34:21;;;;;;;15.10;10.43;;;;;;;19.69;75.49;99369.75;4934231;28;20049;-72
2023/08/05 02:39:41;;;;;;;16.38;9.65;;;;;;;19.83;74.69;99386.13;4934624;28;20055;-69
2023/08/05 02:42:08;;;;;;;15.05;9.98;;;;;;;19.88;73.99;99389.13;4934513;28;20139;-67
2023/08/05 02:44:58;;;;;;;16.48;10.65;;;;;;;19.94;73.83;99399.25;4938790;28;20042;-69
2023/08/05 02:47:28;;;;;;;15.77;9.73;;;;;;;20.04;73.56;99381.97;4938660;28;20766;-67
2023/08/05 02:49:54;;;;;;;13.65;9.55;;;;;;;20.10;72.85;99386.66;4937330;28;20061;-66
2023/08/05 02:52:22;;;;;;;13.10;9.15;;;;;;;20.13;72.83;99386.31;4938509;28;20796;-67
2023/08/05 02:54:53;;;;;;;11.70;8.68;;;;;;;20.20;72.56;99404.38;4938372;28;20042;-69
2023/08/05 02:57:45;;;;;;;19.02;9.20;;;;;;;20.25;72.17;99387.59;4944146;28;20081;-69
2023/08/05 03:00:12;;;;;;;11.43;8.25;;;;;;;20.30;72.11;99402.31;4937125;28;20413;-71
2023/08/05 03:02:40;;;;;;;16.35;9.05;;;;;;;20.39;72.12;99397.72;4953649;28;20405;-70
2023/08/05 03:05:08;;;;;;;11.98;8.98;;;;;;;20.47;71.76;99399.53;4936510;28;20058;-69
2023/08/05 03:07:35;;;;;;;12.77;8.40;;;;;;;20.57;71.82;99403.69;4936940;28;20371;-70
2023/08/05 03:10:02;;;;;;;14.25;8.02;;;;;;;20.67;71.72;99408.88;4952679;28;20493;-69
2023/08/05 03:12:30;;;;;;;17.27;8.98;;;;;;;20.78;71.28;99405.72;4933535;28;20039;-64
2023/08/05 03:15:26;;;;;;;17.48;9.10;;;;;;;21.00;70.84;99413.00;4918202;28;20409;-65
2023/08/05 03:17:58;;;;;;;14.55;8.57;;;;;;;21.01;70.36;99403.84;4937280;28;20055;-64
2023/08/05 03:20:30;;;;;;;14.80;8.23;;;;;;;21.15;70.14;99409.50;4928250;28;20054;-64
2023/08/05 03:23:04;;;;;;;16.80;7.72;;;;;;;21.21;69.90;99409.69;4932831;28;20073;-64
2023/08/05 03:25:35;;;;;;;12.10;8.68;;;;;;;21.34;69.63;99415.28;4917387;28;20050;-63
2023/08/05 03:28:05;;;;;;;13.13;7.72;;;;;;;21.40;68.95;99407.47;4930013;28;20053;-65
2023/08/05 03:30:39;;;;;;;16.60;8.68;;;;;;;21.55;69.02;99421.91;4920530;28;20061;-66
2023/08/05 03:33:04;;;;;;;15.27;8.35;;;;;;;21.62;68.65;99439.09;4936723;28;20050;-67
2023/08/05 03:35:58;;;;;;;16.67;8.65;;;;;;;21.75;68.06;99425.75;4940630;28;20073;-65
2023/08/05 03:38:30;;;;;;;14.25;8.48;;;;;;;21.84;67.83;99421.06;4933271;28;20039;-65
2023/08/05 03:41:05;;;;;;;11.82;7.75;;;;;;;21.96;67.40;99414.97;4932126;28;20054;-65
2023/08/05 03:43:32;;;;;;;10.48;8.00;;;;;;;22.02;66.97;99411.53;4937585;28;20042;-65
2023/08/05 03:46:00;;;;;;;27.00;8.05;;;;;;;22.14;66.89;99416.47;4933454;28;20050;-65
2023/08/05 03:48:26;;;;;;;13.40;7.68;;;;;;;22.22;66.20;99381.94;4919504;28;20046;-65
2023/08/05 03:50:52;;;;;;;15.23;8.30;;;;;;;22.35;66.20;99424.69;4920201;28;20073;-65
2023/08/05 03:53:17;;;;;;;15.95;7.50;;;;;;;22.49;65.77;99442.81;4946787;28;20054;-65
2023/08/05 03:55:44;;;;;;;10.68;6.50;;;;;;;22.65;65.41;99436.34;4936021;28;20051;-67
2023/08/05 03:58:11;;;;;;;12.32;7.80;;;;;;;22.79;64.78;99430.88;4936337;28;20045;-64
2023/08/05 04:01:03;;;;;;;9.60;7.05;;;;;;;22.93;64.22;99431.00;4937001;28;20054;-65
2023/08/05 04:03:30;;;;;;;13.35;7.03;;;;;;;23.05;64.00;99429.44;4935788;28;20039;-65
2023/08/05 04:05:56;;;;;;;10.63;6.93;;;;;;;23.18;63.63;99437.72;4936193;28;20058;-66
2023/08/05 04:08:22;;;;;;;12.43;7.22;;;;;;;23.31;62.86;99426.97;4935915;28;20466;-66
2023/08/05 04:10:50;;;;;;;10.77;7.10;;;;;;;23.44;62.76;99409.91;4936939;28;20046;-66
2023/08/05 04:13:17;;;;;;;10.80;6.93;;;;;;;23.57;62.24;99431.81;4937762;28;20054;-67
2023/08/05 04:15:45;;;;;;;12.48;7.38;;;;;;;23.72;61.93;99439.84;4921173;28;20058;-66
2023/08/05 04:18:17;;;;;;;11.15;6.88;;;;;;;23.92;61.30;99440.00;4936865;28;20047;-66
2023/08/05 04:20:50;;;;;;;22.80;6.60;;;;;;;24.12;60.94;99436.34;4937992;28;20050;-66
2023/08/05 04:23:24;;;;;;;8.13;5.72;;;;;;;24.27;60.28;99394.56;4936959;28;20058;-66
2023/08/05 04:25:59;;;;;;;10.45;5.70;;;;;;;24.43;59.73;99445.94;4936916;28;20050;-64
2023/08/05 04:28:27;;;;;;;15.30;6.32;;;;;;;24.59;59.50;99449.16;4923834;28;20038;-67
2023/08/05 04:30:53;;;;;;;10.43;6.05;;;;;;;24.78;58.65;99447.53;4937697;28;20050;-65
2023/08/05 04:33:20;;;;;;;9.57;5.90;;;;;;;24.99;58.44;99437.53;4936579;28;20049;-66
2023/08/05 04:36:10;;;;;;;11.23;6.60;;;;;;;25.34;57.63;99441.78;4937925;28;20058;-66
2023/08/05 04:38:36;;;;;;;10.57;5.93;;;;;;;25.61;56.53;99453.56;4936601;28;20541;-66
2023/08/05 04:41:03;;;;;;;10.88;6.15;;;;;;;25.98;55.58;99441.09;4937997;28;20054;-67
2023/08/05 04:43:28;;;;;;;9.30;5.57;;;;;;;26.21;54.73;99446.91;4937776;28;20485;-66
2023/08/05 04:45:54;;;;;;;7.07;5.63;;;;;;;26.50;54.10;99442.03;4937677;28;20046;-66
2023/08/05 04:48:23;;;;;;;13.45;6.30;;;;;;;26.83;53.09;99445.44;4937912;28;20046;-66
2023/08/05 04:51:14;;;;;;;8.20;5.60;;;;;;;27.24;52.30;99439.50;4936009;28;20062;-66
2023/08/05 04:53:41;;;;;;;7.65;5.72;;;;;;;27.48;51.31;99437.81;4937812;28;20489;-66
2023/08/05 04:56:07;;;;;;;8.73;5.93;;;;;;;27.80;49.97;99442.19;4936377;28;20059;-67
2023/08/05 04:58:32;;;;;;;7.78;5.78;;;;;;;28.02;49.63;99447.22;4937541;28;20042;-67
2023/08/05 05:00:58;;;;;;;8.23;5.13;;;;;;;28.33;49.05;99451.78;4936374;28;20429;-67
2023/08/05 05:03:25;;;;;;;6.55;5.15;;;;;;;28.57;48.60;99428.03;4936488;28;20039;-66
2023/08/05 05:05:52;;;;;;;12.82;6.10;;;;;;;28.85;47.53;99431.06;4936891;28;20055;-67
2023/08/05 05:08:17;;;;;;;7.72;5.40;;;;;;;29.08;47.16;99425.66;4937272;28;20043;-67
2023/08/05 05:10:46;;;;;;;7.53;5.00;;;;;;;29.32;46.32;99448.53;4937426;28;20050;-67
2023/08/05 05:13:13;;;;;;;7.05;5.38;;;;;;;29.44;45.10;99460.41;4935694;28;20047;-67
2023/08/05 05:16:02;;;;;;;14.52;4.95;;;;;;;29.55;45.19;99450.50;4936925;28;20057;-66
2023/08/05 05:18:27;;;;;;;7.97;4.50;;;;;;;29.59;45.24;99448.94;4936978;28;20035;-66
2023/08/05 05:20:54;;;;;;;12.57;5.38;;;;;;;29.69;44.65;99454.66;4936971;28;20417;-66
2023/08/05 05:23:20;;;;;;;7.72;4.68;;;;;;;29.72;44.31;99454.19;4935856;28;20058;-66
2023/08/05 05:25:46;;;;;;;8.48;4.68;;;;;;;29.86;43.71;99483.13;4935363;28;20058;-66
2023/08/05 05:28:15;;;;;;;8.02;4.35;;;;;;;30.07;42.97;99456.13;4935004;28;20047;-66
2023/08/05 05:30:45;;;;;;;7.38;4.40;;;;;;;30.40;42.60;99461.00;4934440;28;20055;-66
2023/08/05 05:33:11;;;;;;;8.75;4.32;;;;;;;30.73;41.49;99460.31;4935826;28;20043;-66
2023/08/05 05:35:37;;;;;;;12.98;4.40;;;;;;;31.11;40.72;99463.31;4935591;28;20054;-67
2023/08/05 05:38:04;;;;;;;8.27;3.97;;;;;;;31.07;39.83;99462.09;4934431;28;20043;-66
2023/08/05 05:40:32;;;;;;;5.57;4.28;;;;;;;31.24;39.16;99464.91;4935717;28;20470;-67
2023/08/05 05:42:58;;;;;;;5.22;3.70;;;;;;;31.45;39.09;99485.41;4917892;28;20390;-66
2023/08/05 05:45:28;;;;;;;6.78;3.95;;;;;;;31.70;38.15;99467.41;4935699;28;20066;-66
2023/08/05 05:47:55;;;;;;;8.93;4.55;;;;;;;32.15;37.73;99473.84;4935740;28;20049;-66
2023/08/05 05:50:21;;;;;;;6.93;3.75;;;;;;;32.69;36.41;99470.19;4935483;28;20410;-66
2023/08/05 05:52:48;;;;;;;5.63;4.35;;;;;;;33.23;35.54;99458.38;4935486;28;20046;-67
2023/08/05 05:55:46;;;;;;;6.90;3.83;;;;;;;33.94;34.94;99470.91;4933930;28;20054;-67
2023/08/05 05:58:21;;;;;;;6.47;3.50;;;;;;;34.65;33.61;99464.97;4935116;28;20047;-67
2023/08/05 06:00:55;;;;;;;5.60;3.97;;;;;;;35.29;32.09;99468.22;4934067;28;20425;-68
2023/08/05 06:03:22;;;;;;;4.13;3.30;;;;;;;35.72;31.71;99469.63;4933916;28;20045;-68
2023/08/05 06:05:50;;;;;;;5.88;3.80;;;;;;;36.03;30.29;99473.22;4935797;28;20054;-68
2023/08/05 06:08:21;;;;;;;4.57;3.70;;;;;;;36.28;30.10;99467.63;4935797;28;20042;-67
2023/08/05 06:10:51;;;;;;;4.90;4.00;;;;;;;36.49;29.46;99489.78;4940699;28;20051;-67
2023/08/05 06:13:17;;;;;;;7.45;4.20;;;;;;;36.67;29.16;99475.28;4935169;28;20059;-68
2023/08/05 06:15:43;;;;;;;5.35;3.65;;;;;;;36.87;28.82;99469.66;4917893;28;20081;-67
2023/08/05 06:18:09;;;;;;;5.97;3.92;;;;;;;36.98;28.35;99465.69;4938324;28;20512;-67
2023/08/05 06:20:37;;;;;;;5.18;3.67;;;;;;;36.99;28.22;99500.72;4939673;28;20156;-67
2023/08/05 06:23:03;;;;;;;4.22;3.60;;;;;;;37.12;28.06;99465.06;4937832;28;20062;-69
2023/08/05 06:25:29;;;;;;;5.38;3.85;;;;;;;37.02;27.21;99465.97;4939521;28;20457;-68
2023/08/05 06:27:55;;;;;;;5.88;3.80;;;;;;;37.03;27.68;99462.88;4937886;28;20042;-69
2023/08/05 06:30:21;;;;;;;4.50;3.70;;;;;;;37.32;27.57;99460.22;4925672;28;20058;-67
2023/08/05 06:32:46;;;;;;;5.80;3.70;;;;;;;37.84;26.97;99468.97;4911009;28;20070;-66
2023/08/05 06:35:13;;;;;;;9.73;3.95;;;;;;;38.28;26.36;99471.59;4939165;28;20061;-66
2023/08/05 06:37:38;;;;;;;5.18;4.10;;;;;;;38.82;25.98;99488.00;4938785;28;20046;-66
2023/08/05 06:40:05;;;;;;;10.77;4.55;;;;;;;39.41;25.16;99455.94;4939841;28;20050;-66
2023/08/05 06:42:32;;;;;;;4.55;3.83;;;;;;;39.74;24.96;99451.19;4938620;28;20049;-66
2023/08/05 06:45:00;;;;;;;4.47;4.07;;;;;;;40.70;24.32;99463.34;4939939;28;20051;-66
2023/08/05 06:47:30;;;;;;;8.48;4.25;;;;;;;41.63;23.32;99464.56;4939886;28;20038;-67
2023/08/05 06:50:05;;;;;;;4.93;4.47;;;;;;;42.35;22.13;99489.53;4939962;28;20053;-65
2023/08/05 06:52:33;;;;;;;5.32;4.50;;;;;;;43.09;21.62;99461.59;4938271;28;20050;-72
2023/08/05 06:55:01;;;;;;;5.50;4.90;;;;;;;42.78;21.61;99457.25;4939948;28;20058;-74
2023/08/05 06:57:31;;;;;;;8.68;4.70;;;;;;;42.95;21.69;99465.69;4938029;28;20074;-73
2023/08/05 07:00:00;;;;;;;5.70;4.93;;;;;;;42.68;21.45;99464.78;4938605;28;20054;-73
2023/08/05 07:02:31;;;;;;;6.18;5.18;;;;;;;42.00;21.92;99456.91;4939598;28;20409;-73
2023/08/05 07:05:21;;;;;;;5.43;4.93;;;;;;;41.30;22.76;99457.53;4939204;28;20053;-73
2023/08/05 07:07:49;;;;;;;12.85;5.88;;;;;;;41.70;23.24;99461.31;4938381;28;20516;-70
2023/08/05 07:10:17;;;;;;;7.03;4.95;;;;;;;42.83;22.38;99462.69;4939822;28;20046;-72
2023/08/05 07:12:46;;;;;;;6.57;5.30;;;;;;;43.62;21.24;99482.09;4939739;28;20054;-71
2023/08/05 07:15:15;;;;;;;8.98;6.40;;;;;;;43.96;20.61;99498.06;4939579;28;20050;-72
2023/08/05 07:17:41;;;;;;;5.78;5.28;;;;;;;42.77;21.68;99469.59;4939244;28;20049;-72
2023/08/05 07:20:08;;;;;;;5.25;4.53;;;;;;;41.56;23.17;99460.53;4937542;28;20062;-71
2023/08/05 07:22:34;;;;;;;6.82;4.90;;;;;;;41.36;23.83;99456.25;4937285;28;20054;-72
2023/08/05 07:25:26;;;;;;;6.40;5.43;;;;;;;42.73;22.57;99467.44;4938737;28;20054;-71
2023/08/05 07:27:55;;;;;;;6.10;5.45;;;;;;;44.30;21.04;99480.28;4938704;28;20043;-72
2023/08/05 07:30:23;;;;;;;6.25;5.70;;;;;;;45.13;20.71;99467.31;4939313;28;20113;-72
2023/08/05 07:32:50;;;;;;;6.22;5.72;;;;;;;45.07;19.95;99473.44;4939155;28;20070;-67
2023/08/05 07:35:20;;;;;;;7.60;6.47;;;;;;;43.53;20.26;99467.22;4937647;28;20058;-66
2023/08/05 07:37:48;;;;;;;5.88;5.38;;;;;;;42.60;21.87;99461.94;4938800;28;20043;-71
2023/08/05 07:40:18;;;;;;;7.00;6.07;;;;;;;42.17;22.57;99465.41;4939121;28;20051;-72
2023/08/05 07:42:50;;;;;;;13.13;5.93;;;;;;;41.77;23.13;99458.88;4939346;28;20050;-72
2023/08/05 07:45:18;;;;;;;6.47;5.85;;;;;;;42.34;22.46;99476.66;4939091;28;20054;-72
2023/08/05 07:47:45;;;;;;;7.70;5.70;;;;;;;43.49;21.11;99460.59;4921741;28;20058;-71
2023/08/05 07:50:16;;;;;;;8.82;6.88;;;;;;;44.07;20.80;99460.03;4939007;28;20054;-71
2023/08/05 07:52:53;;;;;;;6.63;6.13;;;;;;;43.19;21.11;99474.50;4935910;28;20386;-72
2023/08/05 07:55:18;;;;;;;6.50;5.90;;;;;;;42.85;21.18;99457.59;4919482;29;20059;-72
2023/08/05 07:57:46;;;;;;;6.95;5.65;;;;;;;42.37;22.10;99469.63;4901690;29;20058;-72
2023/08/05 08:00:41;;;;;;;6.53;5.88;;;;;;;42.45;21.70;99471.63;4918441;29;20047;-72
2023/08/05 08:03:09;;;;;;;6.47;5.88;;;;;;;41.64;22.95;99468.19;4919548;29;20039;-73
2023/08/05 08:06:01;;;;;;;9.55;6.03;;;;;;;42.76;22.26;99457.56;4919269;29;20058;-73
2023/08/05 08:08:29;;;;;;;7.60;6.85;;;;;;;44.32;21.27;99447.88;4919486;29;20402;-73
2023/08/05 08:10:54;;;;;;;11.13;7.40;;;;;;;45.29;19.73;99450.59;4919435;29;20043;-71
2023/08/05 08:13:23;;;;;;;8.18;7.38;;;;;;;45.60;20.12;99443.75;4933367;28;20495;-73
2023/08/05 08:15:49;;;;;;;13.48;9.25;;;;;;;45.29;19.72;99467.50;4928571;28;20039;-74
2023/08/05 08:18:18;;;;;;;9.48;7.45;;;;;;;45.41;20.05;99450.66;4938507;28;20054;-72
2023/08/05 08:20:51;;;;;;;6.90;6.28;;;;;;;45.02;19.36;99463.22;4937063;28;20051;-71
2023/08/05 08:23:19;;;;;;;7.22;6.63;;;;;;;43.06;20.50;99469.81;4936570;28;20057;-70
2023/08/05 08:25:45;;;;;;;7.68;6.38;;;;;;;40.86;22.13;99467.44;4938147;28;20061;-71
2023/08/05 08:28:11;;;;;;;5.97;5.45;;;;;;;39.60;23.99;99470.69;4938239;28;20039;-72
2023/08/05 08:30:56;;;;;;;9.98;5.68;;;;;;;40.05;23.83;99459.88;4936581;28;20055;-72
2023/08/05 08:33:28;;;;;;;8.15;5.53;;;;;;;40.84;22.77;99454.94;4932436;28;20042;-72
2023/08/05 08:36:19;;;;;;;6.15;5.57;;;;;;;42.55;21.47;99454.53;4918933;29;20520;-72
2023/08/05 08:38:45;;;;;;;7.40;5.53;;;;;;;42.50;21.38;99479.91;4918454;28;20446;-71
2023/08/05 08:41:41;;;;;;;5.88;5.47;;;;;;;41.95;21.98;99454.22;4918240;29;20070;-71
2023/08/05 08:44:11;;;;;;;5.72;5.15;;;;;;;41.15;22.41;99464.31;4917018;29;20463;-72
2023/08/05 08:46:47;;;;;;;6.32;5.80;;;;;;;42.22;21.59;99448.44;4933559;28;20051;-71
2023/08/05 08:49:19;;;;;;;6.72;6.13;;;;;;;43.33;21.07;99446.28;4933019;28;20058;-73
2023/08/05 08:51:47;;;;;;;6.38;5.88;;;;;;;44.97;20.07;99456.97;4937501;28;20056;-74
2023/08/05 08:54:14;;;;;;;7.25;6.65;;;;;;;46.44;17.88;99450.72;4950379;28;20043;-73
2023/08/05 08:56:41;;;;;;;8.90;8.23;;;;;;;46.56;18.10;99464.84;4950796;28;20058;-74
2023/08/05 08:59:10;;;;;;;9.07;8.43;;;;;;;46.11;19.50;99443.16;4945733;28;20854;-74
2023/08/05 09:01:42;;;;;;;9.30;8.50;;;;;;;45.95;18.51;99453.47;4938413;28;20069;-74
2023/08/05 09:04:11;;;;;;;;;;;;;;;47.50;18.16;99448.47;4937632;28;20533;-75
2023/08/05 09:06:40;;;;;;;10.57;9.77;;;;;;;48.11;17.55;99414.22;4938241;28;19917;-75
2023/08/05 09:12:02;;;;;;;10.98;10.18;;;;;;;48.31;17.41;99457.56;4936171;28;20050;-74
2023/08/05 09:14:29;;;;;;;11.43;10.52;;;;;;;47.27;17.25;99453.81;4937566;28;20046;-74
2023/08/05 09:17:01;;;;;;;10.95;9.80;;;;;;;46.59;17.89;99448.03;4937102;28;20050;-74
2023/08/05 09:19:28;;;;;;;10.55;9.73;;;;;;;46.80;18.06;99455.56;4937731;28;20050;-75
2023/08/05 09:21:55;;;;;;;11.75;10.80;;;;;;;47.72;17.48;99449.06;4936850;28;20057;-75
2023/08/05 09:24:50;;;;;;;11.30;10.52;;;;;;;48.17;16.28;99455.19;4936801;28;20054;-73
2023/08/05 09:27:16;;;;;;;11.60;10.60;;;;;;;46.89;17.53;99444.94;4937142;28;20042;-73
2023/08/05 09:29:41;;;;;;;11.63;10.73;;;;;;;46.84;17.48;99448.84;4937250;28;20047;-72
2023/08/05 09:35:26;;;;;;;11.95;10.88;;;;;;;45.00;19.22;99447.84;4937426;28;20043;-74
2023/08/05 09:37:54;;;;;;;9.90;9.00;;;;;;;44.51;19.36;99437.03;4935189;28;20051;-74
2023/08/05 09:40:22;;;;;;;9.75;8.95;;;;;;;44.58;20.20;99453.41;4935036;28;20073;-75
2023/08/05 09:42:50;;;;;;;9.65;8.75;;;;;;;45.85;18.56;99445.44;4936913;28;20474;-74
2023/08/05 09:45:18;;;;;;;10.30;9.50;;;;;;;45.32;18.67;99443.47;4935349;28;20055;-74
2023/08/05 09:47:46;;;;;;;13.73;8.40;;;;;;;44.81;19.39;99406.94;4936963;28;20490;-73
2023/08/05 09:50:14;;;;;;;9.52;7.65;;;;;;;43.64;20.27;99458.16;4936668;28;20043;-74
2023/08/05 09:52:43;;;;;;;7.28;6.68;;;;;;;42.17;21.38;99448.59;4936712;28;20057;-74
2023/08/05 09:55:21;;;;;;;10.48;6.63;;;;;;;40.42;23.44;99468.09;4935671;28;20406;-74
2023/08/05 09:57:47;;;;;;;6.63;5.47;;;;;;;39.56;25.07;99448.16;4935260;28;20524;-76
2023/08/05 10:00:16;;;;;;;6.10;5.50;;;;;;;39.06;25.94;99455.31;4918966;28;20298;-72
2023/08/05 10:02:46;;;;;;;6.32;5.63;;;;;;;40.29;25.21;99460.56;4935465;28;20051;-72
2023/08/05 10:05:16;;;;;;;6.70;5.82;;;;;;;41.81;23.76;99451.50;4936601;28;20054;-77
2023/08/05 10:07:43;;;;;;;6.93;6.32;;;;;;;42.84;22.35;99451.16;4936688;28;20050;-77
2023/08/05 10:10:19;;;;;;;7.32;6.68;;;;;;;42.03;22.50;99470.25;4936494;28;20074;-77
2023/08/05 10:12:58;;;;;;;12.80;6.88;;;;;;;42.08;22.58;99444.94;4942442;28;20054;-74
2023/08/05 10:15:31;;;;;;;7.15;6.45;;;;;;;43.54;21.57;99454.81;4931963;28;20888;-72
2023/08/05 10:17:58;;;;;;;7.53;6.90;;;;;;;45.60;20.32;99438.09;4902216;28;20066;-69
2023/08/05 10:20:23;;;;;;;9.55;8.63;;;;;;;47.71;17.78;99455.88;4935084;28;20501;-69
2023/08/05 10:23:01;;;;;;;11.32;10.43;;;;;;;49.90;15.21;99451.03;4934033;28;20062;-67
2023/08/05 10:25:42;;;;;;;12.85;12.05;;;;;;;49.95;15.09;99457.22;4931835;28;20046;-68
2023/08/05 10:28:31;;;;;;;13.30;12.40;;;;;;;49.10;16.11;99453.41;4922077;28;20382;-68
2023/08/05 10:34:15;;;;;;;11.93;11.02;;;;;;;45.75;18.66;99428.97;4918179;28;20050;-68
2023/08/05 10:36:47;;;;;;;7.82;7.22;;;;;;;43.29;21.64;99429.25;4932218;28;20525;-68
2023/08/05 10:39:41;;;;;;;8.73;7.97;;;;;;;42.01;22.55;99420.16;4934611;28;20437;-67
2023/08/05 10:42:34;;;;;;;9.05;6.80;;;;;;;40.62;23.27;99414.59;4934486;28;20497;-69
2023/08/05 10:45:04;;;;;;;6.55;5.95;;;;;;;39.06;25.70;99416.28;4931696;28;20042;-69
2023/08/05 10:47:32;;;;;;;5.97;5.38;;;;;;;38.30;26.49;99422.84;4936415;28;20051;-69
2023/08/05 10:49:59;;;;;;;5.70;5.20;;;;;;;37.57;27.15;99431.38;4935779;28;20493;-69
2023/08/05 10:52:26;;;;;;;5.43;5.00;;;;;;;36.81;28.40;99426.31;4933537;28;20050;-71
2023/08/05 10:54:53;;;;;;;9.13;5.85;;;;;;;36.21;28.70;99417.16;4917718;28;20414;-66
2023/08/05 10:57:34;;;;;;;7.78;5.40;;;;;;;35.97;29.63;99422.47;4935912;28;20043;-69
2023/08/05 11:00:01;;;;;;;8.80;5.13;;;;;;;35.35;30.22;99419.97;4905846;28;20050;-67
2023/08/05 11:02:26;;;;;;;6.43;4.75;;;;;;;34.86;30.31;99427.94;4933253;28;20443;-73
2023/08/05 11:05:06;;;;;;;10.30;4.80;;;;;;;34.67;30.42;99424.78;4936638;28;20046;-72
2023/08/05 11:07:36;;;;;;;6.30;4.47;;;;;;;33.96;32.23;99438.28;4938116;28;20046;-73
2023/08/05 11:10:06;;;;;;;8.82;4.53;;;;;;;33.54;33.06;99433.53;4939689;28;20038;-74
2023/08/05 11:12:31;;;;;;;8.82;3.90;;;;;;;33.03;33.53;99447.94;4936825;28;20490;-74
2023/08/05 11:14:59;;;;;;;9.13;4.22;;;;;;;32.49;34.49;99442.34;4938176;28;20039;-76
2023/08/05 11:17:31;;;;;;;5.60;4.63;;;;;;;32.03;35.12;99425.16;4939240;28;20051;-74
2023/08/05 11:19:59;;;;;;;7.03;4.13;;;;;;;31.65;36.47;99430.63;4939198;28;20410;-74
2023/08/05 11:22:35;;;;;;;12.02;4.95;;;;;;;31.52;36.87;99436.44;4939273;28;20050;-73
2023/08/05 11:25:12;;;;;;;7.72;4.18;;;;;;;31.43;36.55;99438.78;4943304;28;20050;-73
2023/08/05 11:27:39;;;;;;;5.68;4.32;;;;;;;31.34;37.10;99424.59;4938049;28;20042;-74
2023/08/05 11:30:19;;;;;;;6.90;4.45;;;;;;;31.32;35.76;99439.72;4935740;28;20070;-72
2023/08/05 11:33:11;;;;;;;5.55;3.80;;;;;;;30.76;37.09;99435.91;4939119;28;20420;-72
2023/08/05 11:35:46;;;;;;;5.57;4.13;;;;;;;30.02;38.17;99437.63;4935995;28;20588;-72
2023/08/05 11:38:18;;;;;;;6.78;3.85;;;;;;;29.81;38.66;99432.69;4939889;28;20059;-71
2023/08/05 11:40:46;;;;;;;5.65;4.25;;;;;;;29.87;38.24;99431.75;4938732;28;20524;-73
2023/08/05 11:43:14;;;;;;;7.57;4.82;;;;;;;30.03;37.90;99435.69;4936006;28;20046;-73
2023/08/05 11:45:40;;;;;;;4.68;3.80;;;;;;;30.13;37.96;99425.78;4934945;28;20418;-72
2023/08/05 11:48:25;;;;;;;7.15;5.22;;;;;;;30.34;37.74;99407.81;4938870;28;20490;-71
2023/08/05 11:51:01;;;;;;;6.88;3.95;;;;;;;30.24;39.72;99424.09;4937627;28;20034;-71
2023/08/05 11:53:29;;;;;;;5.15;3.65;;;;;;;30.04;37.34;99424.47;4936911;28;20831;-72
2023/08/05 11:55:57;;;;;;;7.13;4.30;;;;;;;29.74;37.73;99429.25;4924238;28;20039;-71
2023/08/05 11:58:32;;;;;;;5.35;3.63;;;;;;;29.63;37.99;99427.31;4937625;28;20046;-73
2023/08/05 12:01:22;;;;;;;6.05;3.65;;;;;;;29.53;37.16;99420.50;4937980;28;20050;-71
2023/08/05 12:03:50;;;;;;;5.25;3.95;;;;;;;29.44;38.44;99412.88;4921293;28;20055;-71
2023/08/05 12:06:21;;;;;;;5.53;3.88;;;;;;;29.34;40.16;99423.56;4937511;28;20043;-73